createdAt,value
2018-07-20T00:00:51.452Z,18.92
2018-07-20T00:01:51.446Z,18.70
2018-07-20T00:02:51.423Z,18.70
2018-07-20T00:03:51.411Z,18.72
2018-07-20T00:04:51.398Z,18.70
2018-07-20T00:05:51.536Z,18.76
2018-07-20T00:06:51.373Z,18.73
2018-07-20T00:07:51.356Z,18.75
2018-07-20T00:08:51.356Z,18.90
2018-07-20T00:09:51.333Z,18.95
2018-07-20T00:10:51.317Z,18.90
2018-07-20T00:11:51.307Z,18.92
2018-07-20T00:12:51.294Z,18.98
2018-07-20T00:13:51.320Z,19.13
2018-07-20T00:14:51.264Z,19.02
2018-07-20T00:15:51.253Z,19.07
2018-07-20T00:16:51.302Z,19.16
2018-07-20T00:17:51.222Z,19.28
2018-07-20T00:18:51.215Z,19.22
2018-07-20T00:19:51.199Z,19.32
2018-07-20T00:20:51.192Z,19.36
2018-07-20T00:21:51.176Z,19.28
2018-07-20T00:22:51.210Z,19.21
2018-07-20T00:23:51.145Z,19.26
2018-07-20T00:24:51.132Z,19.23
2018-07-20T00:25:51.120Z,19.23
2018-07-20T00:26:51.128Z,19.26
2018-07-20T00:27:51.095Z,19.26
2018-07-20T00:28:51.082Z,19.28
2018-07-20T00:29:51.071Z,19.32
2018-07-20T00:30:51.057Z,19.33
2018-07-20T00:31:51.040Z,19.26
2018-07-20T00:32:51.025Z,19.37
2018-07-20T00:33:51.016Z,19.43
2018-07-20T00:34:51.002Z,19.46
2018-07-20T00:35:50.986Z,19.40
2018-07-20T00:36:50.981Z,19.44
2018-07-20T00:37:51.000Z,19.39
2018-07-20T00:38:50.948Z,19.43
2018-07-20T00:39:50.935Z,19.44
2018-07-20T00:40:50.925Z,19.47
2018-07-20T00:41:50.915Z,19.47
2018-07-20T00:42:50.898Z,19.44
2018-07-20T00:43:50.885Z,19.40
2018-07-20T00:44:50.868Z,19.41
2018-07-20T00:45:50.858Z,19.40
2018-07-20T00:46:50.848Z,19.39
2018-07-20T00:47:50.834Z,19.26
2018-07-20T00:48:50.864Z,19.31
2018-07-20T00:49:50.804Z,19.29
2018-07-20T00:50:50.795Z,19.28
2018-07-20T00:51:50.776Z,19.31
2018-07-20T00:52:50.763Z,19.26
2018-07-20T00:53:50.749Z,19.21
2018-07-20T00:54:50.736Z,19.14
2018-07-20T00:55:50.723Z,19.23
2018-07-20T00:56:50.709Z,19.21
2018-07-20T00:57:50.714Z,19.21
2018-07-20T00:58:50.685Z,19.25
2018-07-20T00:59:50.669Z,19.22
2018-07-20T01:00:50.660Z,19.10
2018-07-20T01:01:50.646Z,19.18
2018-07-20T01:02:50.630Z,19.08
2018-07-20T01:03:50.615Z,19.08
2018-07-20T01:04:50.609Z,19.00
2018-07-20T01:05:50.590Z,19.02
2018-07-20T01:06:50.580Z,18.92
2018-07-20T01:07:50.564Z,18.82
2018-07-20T01:08:50.554Z,18.94
2018-07-20T01:09:50.542Z,18.90
2018-07-20T01:10:50.526Z,18.90
2018-07-20T01:11:50.520Z,18.88
2018-07-20T01:12:50.599Z,18.90
2018-07-20T01:13:50.487Z,18.95
2018-07-20T01:14:50.475Z,18.92
2018-07-20T01:15:50.467Z,18.91
2018-07-20T01:16:50.447Z,18.95
2018-07-20T01:17:50.434Z,19.00
2018-07-20T01:18:50.420Z,18.99
2018-07-20T01:19:50.407Z,19.04
2018-07-20T01:20:50.399Z,18.94
2018-07-20T01:21:50.383Z,18.98
2018-07-20T01:22:50.366Z,18.91
2018-07-20T01:23:50.353Z,18.91
2018-07-20T01:24:50.345Z,18.91
2018-07-20T01:25:50.327Z,18.94
2018-07-20T01:26:50.314Z,19.00
2018-07-20T01:27:50.325Z,18.94
2018-07-20T01:28:50.442Z,18.81
2018-07-20T01:29:50.274Z,18.72
2018-07-20T01:30:50.266Z,18.75
2018-07-20T01:31:50.247Z,18.72
2018-07-20T01:32:50.239Z,18.62
2018-07-20T01:33:50.222Z,18.58
2018-07-20T01:34:50.208Z,18.65
2018-07-20T01:35:50.194Z,18.65
2018-07-20T01:36:50.179Z,18.60
2018-07-20T01:37:50.166Z,18.63
2018-07-20T01:38:50.154Z,18.63
2018-07-20T01:39:50.138Z,18.70
2018-07-20T01:40:50.127Z,18.78
2018-07-20T01:41:50.120Z,18.75
2018-07-20T01:42:50.106Z,18.73
2018-07-20T01:43:50.085Z,18.80
2018-07-20T01:44:50.151Z,18.81
2018-07-20T01:45:50.063Z,18.81
2018-07-20T01:46:50.049Z,18.76
2018-07-20T01:47:50.085Z,18.72
2018-07-20T01:48:50.022Z,18.78
2018-07-20T01:49:50.106Z,18.72
2018-07-20T01:50:49.995Z,18.80
2018-07-20T01:51:49.980Z,18.72
2018-07-20T01:52:49.964Z,18.63
2018-07-20T01:53:49.954Z,18.63
2018-07-20T01:54:49.987Z,18.60
2018-07-20T01:55:49.927Z,18.60
2018-07-20T01:56:49.912Z,18.60
2018-07-20T01:57:49.901Z,18.60
2018-07-20T01:58:49.887Z,18.58
2018-07-20T01:59:49.883Z,18.60
2018-07-20T02:00:49.861Z,18.57
2018-07-20T02:01:49.850Z,18.55
2018-07-20T02:02:49.836Z,18.60
2018-07-20T02:03:49.827Z,18.57
2018-07-20T02:04:49.808Z,18.60
2018-07-20T02:05:49.795Z,18.51
2018-07-20T02:06:49.778Z,18.57
2018-07-20T02:07:49.766Z,18.60
2018-07-20T02:08:49.755Z,18.60
2018-07-20T02:09:49.738Z,18.62
2018-07-20T02:10:49.724Z,18.60
2018-07-20T02:11:49.816Z,18.52
2018-07-20T02:12:49.697Z,18.62
2018-07-20T02:13:49.685Z,18.67
2018-07-20T02:14:49.671Z,18.62
2018-07-20T02:15:49.665Z,18.51
2018-07-20T02:16:49.645Z,18.52
2018-07-20T02:17:49.636Z,18.44
2018-07-20T02:18:49.617Z,18.48
2018-07-20T02:19:49.602Z,18.45
2018-07-20T02:20:49.592Z,18.54
2018-07-20T02:21:49.576Z,18.57
2018-07-20T02:22:49.721Z,18.62
2018-07-20T02:23:49.549Z,18.58
2018-07-20T02:24:49.553Z,18.58
2018-07-20T02:25:49.525Z,18.62
2018-07-20T02:26:49.509Z,18.57
2018-07-20T02:27:49.505Z,18.67
2018-07-20T02:28:49.486Z,18.62
2018-07-20T02:29:49.487Z,18.48
2018-07-20T02:30:49.482Z,18.48
2018-07-20T02:31:49.441Z,18.45
2018-07-20T02:32:49.427Z,18.45
2018-07-20T02:33:49.413Z,18.45
2018-07-20T02:34:49.405Z,18.45
2018-07-20T02:35:49.389Z,18.47
2018-07-20T02:36:49.376Z,18.47
2018-07-20T02:37:49.361Z,18.45
2018-07-20T02:38:49.348Z,18.42
2018-07-20T02:39:49.335Z,18.37
2018-07-20T02:40:49.324Z,18.45
2018-07-20T02:41:49.309Z,18.50
2018-07-20T02:42:49.293Z,18.47
2018-07-20T02:43:49.286Z,18.48
2018-07-20T02:44:49.274Z,18.48
2018-07-20T02:45:49.255Z,18.57
2018-07-20T02:46:49.246Z,18.60
2018-07-20T02:47:49.228Z,18.60
2018-07-20T02:48:49.211Z,18.60
2018-07-20T02:49:49.203Z,18.58
2018-07-20T02:50:49.186Z,18.62
2018-07-20T02:51:49.176Z,18.62
2018-07-20T02:52:49.158Z,18.60
2018-07-20T02:53:49.145Z,18.62
2018-07-20T02:54:49.284Z,18.58
2018-07-20T02:55:49.116Z,18.48
2018-07-20T02:56:49.105Z,18.52
2018-07-20T02:57:49.096Z,18.48
2018-07-20T02:58:49.083Z,18.51
2018-07-20T02:59:49.064Z,18.44
2018-07-20T03:00:49.060Z,18.48
2018-07-20T03:01:49.037Z,18.47
2018-07-20T03:02:49.027Z,18.45
2018-07-20T03:03:49.007Z,18.48
2018-07-20T03:04:48.994Z,18.52
2018-07-20T03:05:48.981Z,18.42
2018-07-20T03:06:48.973Z,18.50
2018-07-20T03:07:48.960Z,18.44
2018-07-20T03:08:48.941Z,18.44
2018-07-20T03:09:48.930Z,18.44
2018-07-20T03:10:48.969Z,18.41
2018-07-20T03:11:48.901Z,18.39
2018-07-20T03:12:48.886Z,18.29
2018-07-20T03:13:48.880Z,18.20
2018-07-20T03:14:48.861Z,18.17
2018-07-20T03:15:48.855Z,18.10
2018-07-20T03:16:48.834Z,18.07
2018-07-20T03:17:48.818Z,17.99
2018-07-20T03:18:48.805Z,17.95
2018-07-20T03:19:48.797Z,17.86
2018-07-20T03:20:48.778Z,17.86
2018-07-20T03:21:48.766Z,17.64
2018-07-20T03:22:48.755Z,17.68
2018-07-20T03:23:48.740Z,17.72
2018-07-20T03:24:48.735Z,17.74
2018-07-20T03:25:48.707Z,17.75
2018-07-20T03:26:48.716Z,17.72
2018-07-20T03:27:48.684Z,17.59
2018-07-20T03:28:48.666Z,17.41
2018-07-20T03:29:48.708Z,17.43
2018-07-20T03:30:48.638Z,17.23
2018-07-20T03:31:48.625Z,17.25
2018-07-20T03:32:48.708Z,17.22
2018-07-20T03:33:48.606Z,17.16
2018-07-20T03:34:48.695Z,17.07
2018-07-20T03:35:48.573Z,17.15
2018-07-20T03:36:48.555Z,17.04
2018-07-20T03:37:48.649Z,16.97
2018-07-20T03:38:48.539Z,16.93
2018-07-20T03:39:48.514Z,16.83
2018-07-20T03:40:48.505Z,16.88
2018-07-20T03:41:48.488Z,16.89
2018-07-20T03:42:48.473Z,16.91
2018-07-20T03:43:48.459Z,16.81
2018-07-20T03:44:48.445Z,16.83
2018-07-20T03:45:48.430Z,16.70
2018-07-20T03:46:48.415Z,16.57
2018-07-20T03:47:48.405Z,16.46
2018-07-20T03:48:48.390Z,16.50
2018-07-20T03:49:48.376Z,16.42
2018-07-20T03:50:48.366Z,16.45
2018-07-20T03:51:48.348Z,16.45
2018-07-20T03:52:48.334Z,16.49
2018-07-20T03:53:48.423Z,16.48
2018-07-20T03:54:48.305Z,16.61
2018-07-20T03:55:48.295Z,16.66
2018-07-20T03:56:48.337Z,16.73
2018-07-20T03:57:48.263Z,16.81
2018-07-20T03:58:48.248Z,16.91
2018-07-20T03:59:48.234Z,16.79
2018-07-20T04:00:48.220Z,16.88
2018-07-20T04:01:48.205Z,17.01
2018-07-20T04:02:48.195Z,16.98
2018-07-20T04:03:48.179Z,16.93
2018-07-20T04:04:48.164Z,16.94
2018-07-20T04:05:48.153Z,16.81
2018-07-20T04:06:48.138Z,16.86
2018-07-20T04:07:48.122Z,16.85
2018-07-20T04:08:48.134Z,16.85
2018-07-20T04:09:48.098Z,16.91
2018-07-20T04:10:48.082Z,16.79
2018-07-20T04:11:48.074Z,16.83
2018-07-20T04:12:48.056Z,16.75
2018-07-20T04:13:48.040Z,16.82
2018-07-20T04:14:48.027Z,16.79
2018-07-20T04:15:48.013Z,16.78
2018-07-20T04:16:47.996Z,16.82
2018-07-20T04:17:47.980Z,16.71
2018-07-20T04:18:47.972Z,16.82
2018-07-20T04:19:47.956Z,16.86
2018-07-20T04:20:47.938Z,16.81
2018-07-20T04:21:47.924Z,16.68
2018-07-20T04:22:47.914Z,16.64
2018-07-20T04:23:47.896Z,16.58
2018-07-20T04:24:47.886Z,16.60
2018-07-20T04:25:47.870Z,16.66
2018-07-20T04:26:47.857Z,16.68
2018-07-20T04:27:47.849Z,16.67
2018-07-20T04:28:47.826Z,16.75
2018-07-20T04:29:47.810Z,16.86
2018-07-20T04:30:47.796Z,16.88
2018-07-20T04:31:47.782Z,16.76
2018-07-20T04:32:47.775Z,16.81
2018-07-20T04:33:47.865Z,16.88
2018-07-20T04:34:47.736Z,17.00
2018-07-20T04:35:47.728Z,17.11
2018-07-20T04:36:47.763Z,17.11
2018-07-20T04:37:47.703Z,17.19
2018-07-20T04:38:47.680Z,17.23
2018-07-20T04:39:47.669Z,17.16
2018-07-20T04:40:47.658Z,17.18
2018-07-20T04:41:47.638Z,17.18
2018-07-20T04:42:47.627Z,17.07
2018-07-20T04:43:47.668Z,17.21
2018-07-20T04:44:47.599Z,17.22
2018-07-20T04:45:47.582Z,16.98
2018-07-20T04:46:47.580Z,16.85
2018-07-20T04:47:47.554Z,16.66
2018-07-20T04:48:47.541Z,16.46
2018-07-20T04:49:47.526Z,16.38
2018-07-20T04:50:47.513Z,16.28
2018-07-20T04:51:47.498Z,16.30
2018-07-20T04:52:47.489Z,16.45
2018-07-20T04:53:47.467Z,16.43
2018-07-20T04:54:47.460Z,16.49
2018-07-20T04:55:47.489Z,16.63
2018-07-20T04:56:47.425Z,16.61
2018-07-20T04:57:47.418Z,16.64
2018-07-20T04:58:47.423Z,16.67
2018-07-20T04:59:47.383Z,16.75
2018-07-20T05:00:47.371Z,16.81
2018-07-20T05:01:47.353Z,16.83
2018-07-20T05:02:47.337Z,16.82
2018-07-20T05:03:47.368Z,16.81
2018-07-20T05:04:47.310Z,16.86
2018-07-20T05:05:47.303Z,16.81
2018-07-20T05:06:47.283Z,16.97
2018-07-20T05:07:47.267Z,17.03
2018-07-20T05:08:47.272Z,17.14
2018-07-20T05:09:47.239Z,17.19
2018-07-20T05:10:47.229Z,17.19
2018-07-20T05:11:47.241Z,17.22
2018-07-20T05:12:47.200Z,17.25
2018-07-20T05:13:47.185Z,17.34
2018-07-20T05:14:47.170Z,17.28
2018-07-20T05:15:47.152Z,17.28
2018-07-20T05:16:47.147Z,17.21
2018-07-20T05:17:47.124Z,17.00
2018-07-20T05:18:47.112Z,16.93
2018-07-20T05:19:47.138Z,16.91
2018-07-20T05:20:47.085Z,16.82
2018-07-20T05:21:47.069Z,16.68
2018-07-20T05:22:47.052Z,16.82
2018-07-20T05:23:47.039Z,16.88
2018-07-20T05:24:47.091Z,16.97
2018-07-20T05:25:47.025Z,17.08
2018-07-20T05:26:47.005Z,17.18
2018-07-20T05:27:46.989Z,17.22
2018-07-20T05:28:46.973Z,17.25
2018-07-20T05:29:46.967Z,17.40
2018-07-20T05:30:46.943Z,17.38
2018-07-20T05:31:46.928Z,17.43
2018-07-20T05:32:46.913Z,17.56
2018-07-20T05:33:46.898Z,17.62
2018-07-20T05:34:46.887Z,17.62
2018-07-20T05:35:46.878Z,17.48
2018-07-20T05:36:46.858Z,17.52
2018-07-20T05:37:46.838Z,17.66
2018-07-20T05:38:46.838Z,17.70
2018-07-20T05:39:46.817Z,17.74
2018-07-20T05:40:46.799Z,17.77
2018-07-20T05:41:46.785Z,17.78
2018-07-20T05:42:46.771Z,17.86
2018-07-20T05:43:46.756Z,17.81
2018-07-20T05:44:46.748Z,17.90
2018-07-20T05:45:46.728Z,17.92
2018-07-20T05:46:46.713Z,18.07
2018-07-20T05:47:46.700Z,18.02
2018-07-20T05:48:46.686Z,18.18
2018-07-20T05:49:46.673Z,18.18
2018-07-20T05:50:46.657Z,18.30
2018-07-20T05:51:46.643Z,18.33
2018-07-20T05:52:46.634Z,18.39
2018-07-20T05:53:46.614Z,18.44
2018-07-20T05:54:46.602Z,18.47
2018-07-20T05:55:46.586Z,18.62
2018-07-20T05:56:46.573Z,18.65
2018-07-20T05:57:46.562Z,18.60
2018-07-20T05:58:46.545Z,18.69
2018-07-20T05:59:46.531Z,18.69
2018-07-20T06:00:46.515Z,18.70
2018-07-20T06:01:46.511Z,18.75
2018-07-20T06:02:46.490Z,18.81
2018-07-20T06:03:46.480Z,18.80
2018-07-20T06:04:46.476Z,18.75
2018-07-20T06:05:46.451Z,18.82
2018-07-20T06:06:46.436Z,18.88
2018-07-20T06:07:46.422Z,18.91
2018-07-20T06:08:46.462Z,18.94
2018-07-20T06:09:46.397Z,18.90
2018-07-20T06:10:46.381Z,18.92
2018-07-20T06:11:46.363Z,18.95
2018-07-20T06:12:46.351Z,19.06
2018-07-20T06:13:46.335Z,19.13
2018-07-20T06:14:46.324Z,19.16
2018-07-20T06:15:46.427Z,19.23
2018-07-20T06:16:46.293Z,19.25
2018-07-20T06:17:46.280Z,19.26
2018-07-20T06:18:46.316Z,19.33
2018-07-20T06:19:46.253Z,19.36
2018-07-20T06:20:46.238Z,19.40
2018-07-20T06:21:46.229Z,19.48
2018-07-20T06:22:46.214Z,19.43
2018-07-20T06:23:46.265Z,19.47
2018-07-20T06:24:46.184Z,19.59
2018-07-20T06:25:46.174Z,19.65
2018-07-20T06:26:46.158Z,19.61
2018-07-20T06:27:46.142Z,19.71
2018-07-20T06:28:46.134Z,19.80
2018-07-20T06:29:46.116Z,19.84
2018-07-20T06:30:46.102Z,19.84
2018-07-20T06:31:46.091Z,19.87
2018-07-20T06:32:46.079Z,19.87
2018-07-20T06:33:46.062Z,19.95
2018-07-20T06:34:46.064Z,20.02
2018-07-20T06:35:46.033Z,20.02
2018-07-20T06:36:46.021Z,19.92
2018-07-20T06:37:46.016Z,19.88
2018-07-20T06:38:45.995Z,19.95
2018-07-20T06:39:45.984Z,19.96
2018-07-20T06:40:46.014Z,20.05
2018-07-20T06:41:45.957Z,20.06
2018-07-20T06:42:45.957Z,20.03
2018-07-20T06:43:45.945Z,20.05
2018-07-20T06:44:45.912Z,20.13
2018-07-20T06:45:45.900Z,20.18
2018-07-20T06:46:45.886Z,20.01
2018-07-20T06:47:45.883Z,20.16
2018-07-20T06:48:45.860Z,20.21
2018-07-20T06:49:45.853Z,20.14
2018-07-20T06:50:45.844Z,20.13
2018-07-20T06:51:45.828Z,20.14
2018-07-20T06:52:45.805Z,20.16
2018-07-20T06:53:45.845Z,20.24
2018-07-20T06:54:45.781Z,20.29
2018-07-20T06:55:45.766Z,20.35
2018-07-20T06:56:45.755Z,20.38
2018-07-20T06:57:45.753Z,20.48
2018-07-20T06:58:45.731Z,20.52
2018-07-20T06:59:45.720Z,20.58
2018-07-20T07:00:45.701Z,20.54
2018-07-20T07:01:45.759Z,20.61
2018-07-20T07:02:45.676Z,20.72
2018-07-20T07:03:45.670Z,20.76
2018-07-20T07:04:45.652Z,20.64
2018-07-20T07:05:45.649Z,20.74
2018-07-20T07:06:45.639Z,20.80
2018-07-20T07:07:45.615Z,20.80
2018-07-20T07:08:45.595Z,20.79
2018-07-20T07:09:45.579Z,20.79
2018-07-20T07:10:45.573Z,20.85
2018-07-20T07:11:45.556Z,20.82
2018-07-20T07:12:45.545Z,20.87
2018-07-20T07:13:45.535Z,20.84
2018-07-20T07:14:45.519Z,20.79
2018-07-20T07:15:45.503Z,20.94
2018-07-20T07:16:45.507Z,20.97
2018-07-20T07:17:45.529Z,20.97
2018-07-20T07:18:45.465Z,21.06
2018-07-20T07:19:45.453Z,21.07
2018-07-20T07:20:45.493Z,21.22
2018-07-20T07:21:45.424Z,21.32
2018-07-20T07:22:45.411Z,21.35
2018-07-20T07:23:45.438Z,21.42
2018-07-20T07:24:45.386Z,21.47
2018-07-20T07:25:45.375Z,21.47
2018-07-20T07:26:45.360Z,21.54
2018-07-20T07:27:45.344Z,21.58
2018-07-20T07:28:45.336Z,21.65
2018-07-20T07:29:45.320Z,21.62
2018-07-20T07:30:45.305Z,21.67
2018-07-20T07:31:45.295Z,21.62
2018-07-20T07:32:45.280Z,21.54
2018-07-20T07:33:45.420Z,21.75
2018-07-20T07:34:45.266Z,21.82
2018-07-20T07:35:45.248Z,21.88
2018-07-20T07:36:45.238Z,21.94
2018-07-20T07:37:45.217Z,21.86
2018-07-20T07:38:45.213Z,21.88
2018-07-20T07:39:45.190Z,22.03
2018-07-20T07:40:45.177Z,22.10
2018-07-20T07:41:45.173Z,22.06
2018-07-20T07:42:45.161Z,22.17
2018-07-20T07:43:45.140Z,22.20
2018-07-20T07:44:45.137Z,22.25
2018-07-20T07:45:45.116Z,22.36
2018-07-20T07:46:45.104Z,22.39
2018-07-20T07:47:45.095Z,22.40
2018-07-20T07:48:45.076Z,22.43
2018-07-20T07:49:45.067Z,22.51
2018-07-20T07:50:45.052Z,22.58
2018-07-20T07:51:45.040Z,22.65
2018-07-20T07:52:45.029Z,22.75
2018-07-20T07:53:45.017Z,22.80
2018-07-20T07:54:45.040Z,22.82
2018-07-20T07:55:44.989Z,22.88
2018-07-20T07:56:44.977Z,23.01
2018-07-20T07:57:44.971Z,23.02
2018-07-20T07:58:44.949Z,23.07
2018-07-20T07:59:44.939Z,23.02
2018-07-20T08:00:45.027Z,23.13
2018-07-20T08:01:44.917Z,23.15
2018-07-20T08:02:44.907Z,23.39
2018-07-20T08:03:44.891Z,23.47
2018-07-20T08:04:44.879Z,23.53
2018-07-20T08:05:44.867Z,23.61
2018-07-20T08:06:44.877Z,23.73
2018-07-20T08:07:44.849Z,23.84
2018-07-20T08:08:44.829Z,23.95
2018-07-20T08:09:44.831Z,23.94
2018-07-20T08:10:44.807Z,24.00
2018-07-20T08:11:44.790Z,23.98
2018-07-20T08:12:44.782Z,24.08
2018-07-20T08:13:44.769Z,24.16
2018-07-20T08:14:44.759Z,24.22
2018-07-20T08:15:44.779Z,24.18
2018-07-20T08:16:44.734Z,24.22
2018-07-20T08:17:44.725Z,24.24
2018-07-20T08:18:44.715Z,24.25
2018-07-20T08:19:44.695Z,24.37
2018-07-20T08:20:44.683Z,24.34
2018-07-20T08:21:44.671Z,24.47
2018-07-20T08:22:44.673Z,24.52
2018-07-20T08:23:44.655Z,24.42
2018-07-20T08:24:44.639Z,24.40
2018-07-20T08:25:44.629Z,24.49
2018-07-20T08:26:44.615Z,24.53
2018-07-20T08:27:44.606Z,24.73
2018-07-20T08:28:44.591Z,24.83
2018-07-20T08:29:44.582Z,24.91
2018-07-20T08:30:44.571Z,24.81
2018-07-20T08:31:44.554Z,24.83
2018-07-20T08:32:44.661Z,24.87
2018-07-20T08:33:44.537Z,24.90
2018-07-20T08:34:44.522Z,24.93
2018-07-20T08:35:44.512Z,24.95
2018-07-20T08:36:44.506Z,25.05
2018-07-20T08:37:44.500Z,25.09
2018-07-20T08:38:44.526Z,25.18
2018-07-20T08:39:44.468Z,25.18
2018-07-20T08:40:44.564Z,25.25
2018-07-20T08:41:44.459Z,25.18
2018-07-20T08:42:44.442Z,25.28
2018-07-20T08:43:44.430Z,25.20
2018-07-20T08:44:44.411Z,25.28
2018-07-20T08:45:44.404Z,25.40
2018-07-20T08:46:44.391Z,25.35
2018-07-20T08:47:44.379Z,25.43
2018-07-20T08:48:44.365Z,25.33
2018-07-20T08:49:44.352Z,25.45
2018-07-20T08:50:44.345Z,25.40
2018-07-20T08:51:44.337Z,25.47
2018-07-20T08:52:44.327Z,25.57
2018-07-20T08:53:44.309Z,25.60
2018-07-20T08:54:44.302Z,25.69
2018-07-20T08:55:44.285Z,25.85
2018-07-20T08:56:44.327Z,25.88
2018-07-20T08:57:44.268Z,26.01
2018-07-20T08:58:44.258Z,26.02
2018-07-20T08:59:44.244Z,26.17
2018-07-20T09:00:44.249Z,26.21
2018-07-20T09:01:44.224Z,26.26
2018-07-20T09:02:44.226Z,26.09
2018-07-20T09:03:44.234Z,26.02
2018-07-20T09:04:44.191Z,26.15
2018-07-20T09:05:44.180Z,26.09
2018-07-20T09:06:44.168Z,26.15
2018-07-20T09:07:44.162Z,26.13
2018-07-20T09:08:44.148Z,26.20
2018-07-20T09:09:44.139Z,26.07
2018-07-20T09:10:44.126Z,26.07
2018-07-20T09:11:44.115Z,25.88
2018-07-20T09:12:44.111Z,25.98
2018-07-20T09:13:44.181Z,25.83
2018-07-20T09:14:44.086Z,25.76
2018-07-20T09:15:44.068Z,25.76
2018-07-20T09:16:44.073Z,25.99
2018-07-20T09:17:44.049Z,26.01
2018-07-20T09:18:44.037Z,26.18
2018-07-20T09:19:44.026Z,26.28
2018-07-20T09:20:44.113Z,26.39
2018-07-20T09:21:44.007Z,26.36
2018-07-20T09:22:44.006Z,26.55
2018-07-20T09:23:43.987Z,26.45
2018-07-20T09:24:43.976Z,26.36
2018-07-20T09:25:43.972Z,26.50
2018-07-20T09:26:43.962Z,26.58
2018-07-20T09:27:43.947Z,26.45
2018-07-20T09:28:43.936Z,26.52
2018-07-20T09:29:43.932Z,26.63
2018-07-20T09:30:43.915Z,26.80
2018-07-20T09:31:43.901Z,26.66
2018-07-20T09:32:43.902Z,26.60
2018-07-20T09:33:43.898Z,26.57
2018-07-20T09:34:43.885Z,26.48
2018-07-20T09:35:43.860Z,26.36
2018-07-20T09:36:44.004Z,26.47
2018-07-20T09:37:43.862Z,26.75
2018-07-20T09:38:43.828Z,26.87
2018-07-20T09:39:43.820Z,27.04
2018-07-20T09:40:43.809Z,27.03
2018-07-20T09:41:43.805Z,27.03
2018-07-20T09:42:43.837Z,26.91
2018-07-20T09:43:43.778Z,26.94
2018-07-20T09:44:43.774Z,27.04
2018-07-20T09:45:43.759Z,27.12
2018-07-20T09:46:43.747Z,27.31
2018-07-20T09:47:43.736Z,27.41
2018-07-20T09:48:43.736Z,27.44
2018-07-20T09:49:43.731Z,27.55
2018-07-20T09:50:43.710Z,27.66
2018-07-20T09:51:43.696Z,27.70
2018-07-20T09:52:43.790Z,27.59
2018-07-20T09:53:43.679Z,27.50
2018-07-20T09:54:43.669Z,27.55
2018-07-20T09:55:43.662Z,27.57
2018-07-20T09:56:43.646Z,27.47
2018-07-20T09:57:43.643Z,27.50
2018-07-20T09:58:43.632Z,27.44
2018-07-20T09:59:43.641Z,27.55
2018-07-20T10:00:43.610Z,27.59
2018-07-20T10:01:43.600Z,27.66
2018-07-20T10:02:43.594Z,27.57
2018-07-20T10:03:43.584Z,27.36
2018-07-20T10:04:43.567Z,27.43
2018-07-20T10:05:43.600Z,27.39
2018-07-20T10:06:43.558Z,27.46
2018-07-20T10:07:43.546Z,27.36
2018-07-20T10:08:43.579Z,27.47
2018-07-20T10:09:43.521Z,27.39
2018-07-20T10:10:43.514Z,27.39
2018-07-20T10:11:43.505Z,27.44
2018-07-20T10:12:43.534Z,27.19
2018-07-20T10:13:43.481Z,27.13
2018-07-20T10:14:43.474Z,27.14
2018-07-20T10:15:43.463Z,27.09
2018-07-20T10:16:43.458Z,27.13
2018-07-20T10:17:43.446Z,27.00
2018-07-20T10:18:43.440Z,26.99
2018-07-20T10:19:43.428Z,27.02
2018-07-20T10:20:43.419Z,26.92
2018-07-20T10:21:43.405Z,26.99
2018-07-20T10:22:43.394Z,27.17
2018-07-20T10:23:43.390Z,27.29
2018-07-20T10:24:43.379Z,27.28
2018-07-20T10:25:43.373Z,27.34
2018-07-20T10:26:43.484Z,27.43
2018-07-20T10:28:43.342Z,27.47
2018-07-20T10:29:43.357Z,27.50
2018-07-20T10:30:43.394Z,27.69
2018-07-20T10:31:43.310Z,27.74
2018-07-20T10:32:43.356Z,27.84
2018-07-20T10:33:43.288Z,27.85
2018-07-20T10:34:43.282Z,28.00
2018-07-20T10:35:43.269Z,28.07
2018-07-20T10:36:43.277Z,28.07
2018-07-20T10:37:43.257Z,28.22
2018-07-20T10:38:43.249Z,28.30
2018-07-20T10:39:43.243Z,28.48
2018-07-20T10:40:43.223Z,28.67
2018-07-20T10:41:43.222Z,28.71
2018-07-20T10:42:43.214Z,28.61
2018-07-20T10:43:43.198Z,28.71
2018-07-20T10:44:43.192Z,28.83
2018-07-20T10:45:43.282Z,28.92
2018-07-20T10:46:43.165Z,28.81
2018-07-20T10:47:43.153Z,28.90
2018-07-20T10:48:43.148Z,28.78
2018-07-20T10:49:43.143Z,28.88
2018-07-20T10:50:43.138Z,28.76
2018-07-20T10:51:43.117Z,28.76
2018-07-20T10:52:43.112Z,28.68
2018-07-20T10:53:43.112Z,28.64
2018-07-20T10:54:43.098Z,28.66
2018-07-20T10:55:43.080Z,28.56
2018-07-20T10:56:43.069Z,28.51
2018-07-20T10:57:43.067Z,28.52
2018-07-20T10:58:43.169Z,28.59
2018-07-20T10:59:43.048Z,28.59
2018-07-20T11:00:43.047Z,28.58
2018-07-20T11:01:43.153Z,28.49
2018-07-20T11:02:43.019Z,28.34
2018-07-20T11:03:43.006Z,28.34
2018-07-20T11:04:42.999Z,28.36
2018-07-20T11:05:42.995Z,28.48
2018-07-20T11:06:42.979Z,28.49
2018-07-20T11:07:42.973Z,28.27
2018-07-20T11:08:42.963Z,28.11
2018-07-20T11:09:42.963Z,28.09
2018-07-20T11:10:42.941Z,28.11
2018-07-20T11:11:42.929Z,28.03
2018-07-20T11:12:42.927Z,27.85
2018-07-20T11:13:42.920Z,28.12
2018-07-20T11:14:42.903Z,28.21
2018-07-20T11:15:42.906Z,28.40
2018-07-20T11:16:42.882Z,28.49
2018-07-20T11:17:42.874Z,28.54
2018-07-20T11:18:42.884Z,28.68
2018-07-20T11:19:42.867Z,28.74
2018-07-20T11:20:42.849Z,28.85
2018-07-20T11:21:42.839Z,28.98
2018-07-20T11:22:42.948Z,28.88
2018-07-20T11:23:42.831Z,28.83
2018-07-20T11:24:42.823Z,28.85
2018-07-20T11:25:42.871Z,28.78
2018-07-20T11:26:42.793Z,28.76
2018-07-20T11:27:42.783Z,28.74
2018-07-20T11:28:42.775Z,28.67
2018-07-20T11:29:42.764Z,28.55
2018-07-20T11:30:42.756Z,28.44
2018-07-20T11:31:42.756Z,28.37
2018-07-20T11:32:42.737Z,28.58
2018-07-20T11:33:42.733Z,28.70
2018-07-20T11:34:42.742Z,28.76
2018-07-20T11:35:42.713Z,28.86
2018-07-20T11:36:42.702Z,29.02
2018-07-20T11:37:42.694Z,29.04
2018-07-20T11:38:42.884Z,29.04
2018-07-20T11:39:42.677Z,29.14
2018-07-20T11:40:42.667Z,29.08
2018-07-20T11:41:42.659Z,29.06
2018-07-20T11:42:42.656Z,29.09
2018-07-20T11:43:42.642Z,29.23
2018-07-20T11:44:42.630Z,29.19
2018-07-20T11:45:42.625Z,29.15
2018-07-20T11:46:42.624Z,29.24
2018-07-20T11:47:42.608Z,29.28
2018-07-20T11:48:42.600Z,29.16
2018-07-20T11:49:42.588Z,29.08
2018-07-20T11:50:42.589Z,29.24
2018-07-20T11:51:42.566Z,29.31
2018-07-20T11:52:42.555Z,29.45
2018-07-20T11:53:42.560Z,29.34
2018-07-20T11:54:42.544Z,29.33
2018-07-20T11:55:42.539Z,29.27
2018-07-20T11:56:42.520Z,29.18
2018-07-20T11:57:42.519Z,29.21
2018-07-20T11:58:42.504Z,29.21
2018-07-20T11:59:42.655Z,29.27
2018-07-20T12:00:42.488Z,29.28
2018-07-20T12:01:42.478Z,29.21
2018-07-20T12:02:42.488Z,29.27
2018-07-20T12:03:42.457Z,29.33
2018-07-20T12:04:42.457Z,29.43
2018-07-20T12:05:42.441Z,29.42
2018-07-20T12:06:42.434Z,29.45
2018-07-20T12:07:42.425Z,29.51
2018-07-20T12:08:42.427Z,29.61
2018-07-20T12:09:42.414Z,29.80
2018-07-20T12:10:42.394Z,29.83
2018-07-20T12:11:42.408Z,30.00
2018-07-20T12:12:42.380Z,29.89
2018-07-20T12:13:42.370Z,30.04
2018-07-20T12:14:42.365Z,29.90
2018-07-20T12:15:42.355Z,29.82
2018-07-20T12:16:42.348Z,29.78
2018-07-20T12:17:42.339Z,29.82
2018-07-20T12:18:42.327Z,29.89
2018-07-20T12:19:42.326Z,30.02
2018-07-20T12:20:42.307Z,30.04
2018-07-20T12:21:42.306Z,30.00
2018-07-20T12:22:42.294Z,29.90
2018-07-20T12:23:42.284Z,30.00
2018-07-20T12:24:42.276Z,30.00
2018-07-20T12:25:42.266Z,29.94
2018-07-20T12:26:42.272Z,29.86
2018-07-20T12:27:42.247Z,29.87
2018-07-20T12:28:42.247Z,29.94
2018-07-20T12:29:42.231Z,29.89
2018-07-20T12:30:42.222Z,29.87
2018-07-20T12:31:42.215Z,29.85
2018-07-20T12:32:42.207Z,29.83
2018-07-20T12:33:42.197Z,29.70
2018-07-20T12:34:42.220Z,29.70
2018-07-20T12:35:42.179Z,29.68
2018-07-20T12:36:42.193Z,29.63
2018-07-20T12:37:42.159Z,29.53
2018-07-20T12:38:42.151Z,29.49
2018-07-20T12:39:42.143Z,29.37
2018-07-20T12:40:42.136Z,29.23
2018-07-20T12:41:42.127Z,29.30
2018-07-20T12:42:42.188Z,29.21
2018-07-20T12:43:42.108Z,29.27
2018-07-20T12:44:42.108Z,29.16
2018-07-20T12:45:42.094Z,29.12
2018-07-20T12:46:42.142Z,29.12
2018-07-20T12:47:42.080Z,29.06
2018-07-20T12:48:42.066Z,29.06
2018-07-20T12:49:42.060Z,29.15
2018-07-20T12:50:42.065Z,29.14
2018-07-20T12:51:42.039Z,29.09
2018-07-20T12:52:42.079Z,28.93
2018-07-20T12:53:42.025Z,29.00